createdAt,value
2022-11-21T00:01:26.961Z,36.30
2022-11-21T00:03:55.301Z,37.20
2022-11-21T00:06:23.877Z,33.00
2022-11-21T00:08:52.606Z,33.60
2022-11-21T00:11:21.016Z,35.90
2022-11-21T00:13:49.465Z,33.90
2022-11-21T00:16:17.893Z,35.10
2022-11-21T00:18:46.341Z,35.70
2022-11-21T00:21:17.812Z,36.00
2022-11-21T00:23:47.803Z,37.90
2022-11-21T00:26:17.534Z,37.20
2022-11-21T00:28:45.988Z,35.10
2022-11-21T00:31:24.180Z,36.20
2022-11-21T00:33:52.574Z,37.50
2022-11-21T00:36:20.992Z,34.60
2022-11-21T00:38:52.149Z,33.60
2022-11-21T00:41:20.486Z,34.60
2022-11-21T00:43:48.821Z,36.80
2022-11-21T00:46:17.140Z,34.80
2022-11-21T00:48:45.509Z,33.40
2022-11-21T00:51:13.901Z,37.30
2022-11-21T00:53:42.752Z,33.70
2022-11-21T00:56:11.032Z,35.70
2022-11-21T00:58:41.691Z,35.40
2022-11-21T01:01:13.492Z,36.20
2022-11-21T01:03:42.406Z,34.80
2022-11-21T01:06:14.543Z,37.30
2022-11-21T01:08:45.166Z,35.40
2022-11-21T01:11:20.089Z,33.10
2022-11-21T01:13:49.058Z,35.00
2022-11-21T01:16:25.253Z,36.90
2022-11-21T01:18:54.004Z,36.90
2022-11-21T01:21:29.161Z,35.20
2022-11-21T01:24:01.185Z,33.70
2022-11-21T01:26:32.972Z,36.10
2022-11-21T01:29:01.360Z,34.30
2022-11-21T01:31:30.895Z,31.40
2022-11-21T01:34:02.568Z,31.50
2022-11-21T01:36:33.548Z,34.50
2022-11-21T01:39:07.308Z,34.00
2022-11-21T01:41:45.250Z,32.00
2022-11-21T01:44:45.427Z,30.80
2022-11-21T01:47:13.754Z,35.40
2022-11-21T01:49:43.906Z,34.50
2022-11-21T01:52:28.270Z,32.20
2022-11-21T01:55:10.523Z,30.90
2022-11-21T01:57:44.997Z,29.70
2022-11-21T02:00:24.417Z,30.40
2022-11-21T02:03:02.315Z,32.60
2022-11-21T02:05:35.404Z,35.00
2022-11-21T02:08:15.668Z,29.60
2022-11-21T02:11:16.110Z,30.60
2022-11-21T02:13:44.564Z,31.80
2022-11-21T02:16:13.030Z,30.50
2022-11-21T02:18:41.513Z,32.60
2022-11-21T02:21:38.315Z,30.30
2022-11-21T02:24:24.264Z,30.30
2022-11-21T02:26:52.721Z,33.90
2022-11-21T02:29:21.160Z,29.40
2022-11-21T02:31:49.531Z,33.20
2022-11-21T02:34:17.898Z,33.70
2022-11-21T02:36:47.592Z,33.40
2022-11-21T02:39:35.948Z,39.20
2022-11-21T02:42:14.823Z,35.10
2022-11-21T02:45:14.158Z,30.10
2022-11-21T02:47:43.784Z,34.40
2022-11-21T02:50:34.177Z,33.50
2022-11-21T02:53:05.599Z,33.30
2022-11-21T02:55:34.198Z,31.90
2022-11-21T02:58:05.247Z,30.80
2022-11-21T03:00:36.148Z,34.40
2022-11-21T03:03:04.766Z,32.90
2022-11-21T03:05:33.493Z,33.10
2022-11-21T03:08:01.953Z,35.50
2022-11-21T03:10:30.328Z,31.60
2022-11-21T03:13:01.941Z,29.80
2022-11-21T03:15:34.010Z,32.40
2022-11-21T03:18:03.944Z,29.20
2022-11-21T03:20:34.898Z,28.00
2022-11-21T03:23:03.459Z,29.80
2022-11-21T03:25:31.957Z,27.50
2022-11-21T03:28:00.276Z,34.20
2022-11-21T03:30:28.832Z,30.20
2022-11-21T03:32:57.815Z,31.60
2022-11-21T03:35:26.724Z,31.70
2022-11-21T03:37:57.557Z,31.50
2022-11-21T03:40:25.917Z,26.60
2022-11-21T03:42:54.228Z,30.20
2022-11-21T03:45:22.619Z,28.20
2022-11-21T03:47:50.954Z,30.40
2022-11-21T03:50:21.057Z,29.90
2022-11-21T03:52:49.416Z,30.80
2022-11-21T03:55:17.843Z,30.00
2022-11-21T03:57:46.218Z,28.00
2022-11-21T04:00:15.924Z,28.00
2022-11-21T04:02:44.360Z,31.70
2022-11-21T04:05:12.715Z,30.10
2022-11-21T04:07:41.167Z,31.30
2022-11-21T04:10:10.164Z,30.10
2022-11-21T04:12:38.488Z,27.60
2022-11-21T04:15:13.147Z,26.50
2022-11-21T04:17:42.190Z,23.70
2022-11-21T04:20:11.497Z,27.60
2022-11-21T04:22:39.985Z,28.30
2022-11-21T04:25:08.557Z,21.60
2022-11-21T04:27:36.990Z,28.80
2022-11-21T04:30:07.126Z,29.20
2022-11-21T04:32:35.437Z,28.60
2022-11-21T04:35:04.151Z,26.90
2022-11-21T04:37:32.479Z,28.50
2022-11-21T04:40:00.905Z,27.00
2022-11-21T04:42:29.302Z,27.30
2022-11-21T04:44:57.684Z,29.00
2022-11-21T04:47:26.037Z,29.80
2022-11-21T04:49:54.421Z,26.60
2022-11-21T04:52:22.848Z,28.70
2022-11-21T04:54:51.666Z,27.80
2022-11-21T04:57:19.961Z,26.30
2022-11-21T04:59:48.479Z,24.60
2022-11-21T05:02:16.811Z,26.00
2022-11-21T05:04:45.141Z,27.70
2022-11-21T05:07:14.526Z,26.70
2022-11-21T05:09:42.943Z,26.00
2022-11-21T05:12:30.730Z,26.30
2022-11-21T05:14:59.048Z,25.00
2022-11-21T05:17:30.646Z,23.70
2022-11-21T05:19:58.938Z,22.70
2022-11-21T05:22:27.494Z,24.30
2022-11-21T05:24:55.874Z,27.90
2022-11-21T05:27:24.220Z,26.90
2022-11-21T05:29:53.360Z,26.70
2022-11-21T05:32:21.880Z,22.00
2022-11-21T05:34:52.806Z,23.90
2022-11-21T05:37:22.014Z,23.40
2022-11-21T05:39:50.390Z,23.50
2022-11-21T05:42:38.651Z,25.30
2022-11-21T05:45:08.094Z,24.70
2022-11-21T05:47:36.406Z,23.10
2022-11-21T05:50:05.317Z,21.70
2022-11-21T05:52:33.685Z,19.90
2022-11-21T05:55:02.039Z,19.90
2022-11-21T05:57:31.295Z,20.80
2022-11-21T05:59:59.682Z,23.80
2022-11-21T06:02:47.091Z,22.40
2022-11-21T06:05:15.534Z,22.20
2022-11-21T06:07:44.041Z,25.50
2022-11-21T06:10:12.405Z,25.20
2022-11-21T06:12:40.653Z,22.90
2022-11-21T06:15:09.566Z,22.20
2022-11-21T06:17:37.832Z,21.10
2022-11-21T06:20:07.042Z,20.40
2022-11-21T06:22:35.314Z,21.90
2022-11-21T06:25:03.914Z,24.00
2022-11-21T06:27:32.192Z,23.30
2022-11-21T06:30:03.993Z,25.60
2022-11-21T06:32:38.169Z,26.10
2022-11-21T06:35:07.033Z,21.10
2022-11-21T06:37:37.745Z,21.70
2022-11-21T06:40:06.906Z,20.70
2022-11-21T06:42:35.209Z,24.00
2022-11-21T06:45:04.705Z,22.70
2022-11-21T06:47:35.992Z,23.20
2022-11-21T06:50:04.623Z,23.90
2022-11-21T06:52:33.871Z,23.00
2022-11-21T06:55:03.087Z,21.30
2022-11-21T06:57:32.951Z,21.60
2022-11-21T07:00:01.317Z,21.50
2022-11-21T07:02:29.641Z,22.30
2022-11-21T07:04:57.934Z,21.00
2022-11-21T07:07:26.406Z,21.10
2022-11-21T07:10:00.081Z,19.80
2022-11-21T07:12:46.977Z,23.40
2022-11-21T07:15:15.934Z,22.70
2022-11-21T07:17:44.256Z,22.40
2022-11-21T07:20:13.525Z,25.00
2022-11-21T07:22:41.974Z,19.30
2022-11-21T07:25:13.029Z,23.50
2022-11-21T07:27:41.947Z,19.50
2022-11-21T07:30:11.087Z,22.10
2022-11-21T07:32:39.515Z,22.40
2022-11-21T07:35:09.894Z,22.90
2022-11-21T07:37:40.982Z,22.90
2022-11-21T07:40:09.791Z,23.70
2022-11-21T07:42:38.087Z,21.20
2022-11-21T07:45:07.093Z,22.50
2022-11-21T07:47:35.490Z,20.10
2022-11-21T07:50:05.903Z,20.80
2022-11-21T07:52:34.895Z,18.00
2022-11-21T07:55:06.321Z,19.10
2022-11-21T07:57:34.682Z,21.40
2022-11-21T08:00:03.766Z,20.20
2022-11-21T08:02:32.065Z,21.60
2022-11-21T08:05:00.385Z,21.90
2022-11-21T08:07:28.693Z,21.10
2022-11-21T08:09:57.371Z,18.40
2022-11-21T08:12:26.474Z,15.90
2022-11-21T08:14:54.930Z,19.50
2022-11-21T08:17:26.324Z,18.90
2022-11-21T08:19:54.760Z,18.80
2022-11-21T08:22:23.153Z,17.70
2022-11-21T08:24:51.490Z,16.10
2022-11-21T08:27:21.768Z,18.00
2022-11-21T08:29:50.703Z,19.00
2022-11-21T08:32:21.794Z,19.70
2022-11-21T08:34:50.158Z,18.20
2022-11-21T08:39:00.581Z,19.30
2022-11-21T08:41:47.618Z,19.30
2022-11-21T08:44:16.048Z,16.70
2022-11-21T08:46:44.594Z,15.60
2022-11-21T08:49:12.985Z,15.60
2022-11-21T08:51:41.510Z,15.20
2022-11-21T08:54:10.045Z,13.40
2022-11-21T08:56:38.522Z,14.50
2022-11-21T08:59:07.600Z,13.50
2022-11-21T09:01:36.073Z,13.20
2022-11-21T09:04:06.080Z,12.90
2022-11-21T09:06:35.265Z,12.40
2022-11-21T09:09:06.402Z,14.60
2022-11-21T09:11:37.623Z,12.00
2022-11-21T09:14:24.871Z,11.20
2022-11-21T09:17:12.212Z,14.50
2022-11-21T09:19:40.638Z,12.00
2022-11-21T09:22:09.045Z,12.70
2022-11-21T09:24:37.301Z,12.20
2022-11-21T09:27:05.623Z,11.00
2022-11-21T09:29:34.038Z,13.80
2022-11-21T09:32:02.459Z,10.80
2022-11-21T09:34:31.904Z,10.70
2022-11-21T09:37:00.385Z,10.20
2022-11-21T09:39:29.004Z,8.80
2022-11-21T09:42:19.218Z,8.80
2022-11-21T09:45:19.515Z,8.50
2022-11-21T09:47:52.491Z,9.80
2022-11-21T09:50:34.837Z,7.40
2022-11-21T09:53:19.217Z,6.80
2022-11-21T09:56:14.058Z,7.80
2022-11-21T09:58:50.489Z,8.50
2022-11-21T10:01:18.977Z,6.80
2022-11-21T10:07:30.433Z,6.60
2022-11-21T10:10:52.330Z,6.70
2022-11-21T10:14:00.615Z,5.70
2022-11-21T10:16:57.436Z,9.30
2022-11-21T10:19:59.543Z,7.40
2022-11-21T10:23:13.942Z,9.10
2022-11-21T10:25:57.384Z,8.10
2022-11-21T10:29:11.007Z,8.10
2022-11-21T10:31:42.882Z,7.30
2022-11-21T10:34:20.614Z,6.90
2022-11-21T10:36:56.492Z,6.30
2022-11-21T10:39:44.338Z,6.50
2022-11-21T10:42:36.365Z,5.80
2022-11-21T10:45:19.426Z,5.10
2022-11-21T10:47:51.192Z,4.40
2022-11-21T10:50:31.772Z,4.60
2022-11-21T10:53:36.232Z,6.00
2022-11-21T10:56:27.532Z,4.60
2022-11-21T10:58:59.395Z,4.00
2022-11-21T11:01:35.560Z,4.10
2022-11-21T11:07:20.278Z,5.90
2022-11-21T11:09:48.643Z,5.30
2022-11-21T11:12:46.099Z,14.10
2022-11-21T11:15:26.800Z,10.40
2022-11-21T11:18:09.449Z,6.50
2022-11-21T11:20:45.064Z,5.70
2022-11-21T11:23:26.952Z,4.10
2022-11-21T11:25:59.062Z,4.60
2022-11-21T11:28:37.179Z,4.10
2022-11-21T11:31:05.732Z,4.40
2022-11-21T11:33:51.205Z,4.00
2022-11-21T11:36:36.944Z,4.80
2022-11-21T11:39:38.494Z,3.30
2022-11-21T11:42:59.611Z,3.40
2022-11-21T11:46:07.314Z,3.50
2022-11-21T11:48:56.545Z,3.70
2022-11-21T11:51:37.159Z,4.20
2022-11-21T11:54:20.723Z,4.60
2022-11-21T11:56:49.891Z,3.80
2022-11-21T11:59:34.098Z,3.60
2022-11-21T12:02:33.732Z,3.50
2022-11-21T12:05:17.426Z,5.00
2022-11-21T12:11:29.914Z,4.40
2022-11-21T12:14:54.351Z,3.70
2022-11-21T12:17:33.835Z,3.60
2022-11-21T12:20:13.595Z,3.70
2022-11-21T12:22:42.832Z,4.00
2022-11-21T12:25:13.302Z,3.60
2022-11-21T12:27:42.792Z,3.90
2022-11-21T12:30:37.893Z,4.40
2022-11-21T12:33:20.098Z,5.00
2022-11-21T12:36:17.951Z,3.40
2022-11-21T12:39:29.753Z,4.70
2022-11-21T12:42:29.487Z,5.70
2022-11-21T12:45:29.039Z,6.30
2022-11-21T12:48:58.776Z,9.50
2022-11-21T12:52:04.069Z,7.40
2022-11-21T12:54:55.583Z,11.90
2022-11-21T12:58:01.203Z,10.40
2022-11-21T13:00:48.440Z,9.80
2022-11-21T13:03:44.783Z,11.80
2022-11-21T13:08:52.955Z,11.80
2022-11-21T13:11:55.596Z,12.90
2022-11-21T13:15:04.625Z,14.60
2022-11-21T13:17:34.696Z,14.70
2022-11-21T13:20:24.350Z,12.00
2022-11-21T13:22:58.465Z,13.90
2022-11-21T13:25:32.854Z,13.80
2022-11-21T13:28:13.623Z,13.80
2022-11-21T13:30:48.474Z,16.10
2022-11-21T13:33:35.014Z,16.10
2022-11-21T13:36:10.376Z,11.90
2022-11-21T13:39:07.787Z,12.00
2022-11-21T13:41:54.828Z,11.70
2022-11-21T13:44:32.416Z,12.50
2022-11-21T13:47:30.919Z,14.90
2022-11-21T13:50:29.009Z,11.30
2022-11-21T13:53:17.762Z,12.40
2022-11-21T13:55:58.476Z,12.30
2022-11-21T13:58:50.313Z,11.20
2022-11-21T14:01:33.082Z,11.70
2022-11-21T14:04:38.829Z,11.70
2022-11-21T14:07:38.724Z,10.80
2022-11-21T14:10:25.435Z,11.10
2022-11-21T14:12:55.989Z,12.20
2022-11-21T14:15:40.192Z,11.70
2022-11-21T14:18:22.914Z,8.90
2022-11-21T14:21:02.159Z,9.70
2022-11-21T14:23:34.360Z,11.30
2022-11-21T14:26:14.768Z,10.40
2022-11-21T14:28:43.213Z,12.00
2022-11-21T14:31:13.210Z,12.80
2022-11-21T14:33:47.371Z,14.90
2022-11-21T14:36:31.642Z,14.00
2022-11-21T14:39:35.430Z,14.20
2022-11-21T14:41:59.406Z,14.90
2022-11-21T14:44:28.271Z,15.80
2022-11-21T14:47:26.575Z,16.30
2022-11-21T14:49:59.587Z,15.60
2022-11-21T14:55:29.186Z,15.90
2022-11-21T14:57:57.674Z,14.80
2022-11-21T15:00:59.326Z,15.30
2022-11-21T15:03:23.830Z,16.90
2022-11-21T15:06:05.260Z,15.30
2022-11-21T15:09:18.418Z,15.40
2022-11-21T15:11:47.179Z,16.20
2022-11-21T15:14:24.246Z,15.30
2022-11-21T15:16:55.523Z,17.00
2022-11-21T15:19:32.649Z,16.90
2022-11-21T15:22:04.638Z,15.70
2022-11-21T15:24:43.931Z,17.50
2022-11-21T15:27:27.510Z,17.40
2022-11-21T15:30:07.478Z,16.70
2022-11-21T15:33:01.787Z,24.40
2022-11-21T15:35:54.696Z,20.00
2022-11-21T15:38:50.190Z,25.50
2022-11-21T15:41:18.474Z,27.50
2022-11-21T15:43:50.521Z,22.20
2022-11-21T15:46:30.172Z,22.10
2022-11-21T15:49:24.994Z,22.30
2022-11-21T15:52:06.577Z,19.90
2022-11-21T15:54:35.687Z,20.10
2022-11-21T15:57:04.135Z,19.20
2022-11-21T15:59:32.863Z,16.20
2022-11-21T16:02:01.360Z,16.90
2022-11-21T16:04:29.738Z,15.80
2022-11-21T16:06:58.135Z,15.30
2022-11-21T16:09:26.748Z,17.20
2022-11-21T16:11:55.340Z,21.80
2022-11-21T16:14:23.782Z,22.50
2022-11-21T16:16:52.186Z,21.60
2022-11-21T16:19:20.533Z,24.10
2022-11-21T16:21:48.863Z,19.70
2022-11-21T16:24:17.660Z,20.10
2022-11-21T16:26:47.044Z,19.90
2022-11-21T16:29:15.556Z,22.00
2022-11-21T16:31:43.990Z,21.40
2022-11-21T16:34:12.379Z,17.10
2022-11-21T16:36:40.664Z,17.30
2022-11-21T16:39:13.539Z,13.20
2022-11-21T16:41:46.114Z,13.80
2022-11-21T16:44:16.521Z,16.40
2022-11-21T16:46:49.174Z,17.90
2022-11-21T16:49:17.676Z,18.70
2022-11-21T16:51:46.367Z,15.80
2022-11-21T16:54:15.342Z,16.80
2022-11-21T16:56:43.754Z,17.70
2022-11-21T16:59:12.216Z,20.10
2022-11-21T17:01:40.694Z,16.30
2022-11-21T17:04:14.171Z,19.40
2022-11-21T17:06:47.170Z,18.20
2022-11-21T17:09:16.881Z,23.90
2022-11-21T17:11:45.270Z,19.70
2022-11-21T17:14:13.751Z,23.00
2022-11-21T17:16:42.118Z,24.30
2022-11-21T17:19:12.202Z,21.50
2022-11-21T17:21:40.715Z,22.60
2022-11-21T17:24:09.049Z,19.40
2022-11-21T17:28:42.328Z,21.30
2022-11-21T17:31:17.324Z,21.20
2022-11-21T17:33:50.291Z,21.70
2022-11-21T17:36:21.744Z,18.30
2022-11-21T17:38:51.505Z,17.90
2022-11-21T17:41:22.389Z,16.10
2022-11-21T17:43:57.480Z,16.30
2022-11-21T17:46:26.794Z,14.00
2022-11-21T17:49:27.123Z,16.80
2022-11-21T17:51:56.893Z,17.40
2022-11-21T17:54:25.906Z,17.00
2022-11-21T17:56:57.002Z,17.70
2022-11-21T17:59:27.517Z,13.70
2022-11-21T18:01:56.532Z,13.80
2022-11-21T18:04:25.142Z,15.20
2022-11-21T18:06:53.501Z,15.60
2022-11-21T18:09:21.877Z,18.80
2022-11-21T18:11:50.330Z,16.80
2022-11-21T18:14:18.890Z,18.30
2022-11-21T18:16:52.769Z,20.60
2022-11-21T18:19:22.428Z,22.10
2022-11-21T18:21:51.919Z,23.00
2022-11-21T18:24:20.591Z,23.00
2022-11-21T18:26:48.963Z,23.70
2022-11-21T18:31:59.027Z,23.60
2022-11-21T18:34:27.565Z,22.70
2022-11-21T18:36:56.426Z,22.30
2022-11-21T18:39:25.168Z,18.00
2022-11-21T18:41:55.655Z,17.30
2022-11-21T18:44:24.529Z,18.50
2022-11-21T18:46:52.885Z,27.30
2022-11-21T18:49:23.664Z,28.90
2022-11-21T18:51:52.206Z,23.30
2022-11-21T18:54:20.894Z,26.80
2022-11-21T18:56:49.306Z,27.20
2022-11-21T18:59:17.754Z,35.50
2022-11-21T19:01:46.294Z,31.80
2022-11-21T19:04:15.886Z,38.60
2022-11-21T19:06:44.253Z,37.80
2022-11-21T19:12:09.317Z,24.30
2022-11-21T19:14:37.653Z,21.90
2022-11-21T19:17:05.971Z,21.10
2022-11-21T19:19:35.735Z,18.10
2022-11-21T19:22:06.297Z,17.80
2022-11-21T19:24:35.749Z,15.70
2022-11-21T19:27:04.904Z,17.50
2022-11-21T19:29:33.569Z,15.30
2022-11-21T19:32:02.143Z,16.50
2022-11-21T19:34:30.470Z,15.70
2022-11-21T19:36:58.981Z,15.00
2022-11-21T19:39:29.510Z,17.10
2022-11-21T19:41:58.071Z,16.40
2022-11-21T19:44:26.566Z,17.10
2022-11-21T19:46:56.027Z,16.60
2022-11-21T19:49:24.415Z,15.10
2022-11-21T19:51:52.839Z,16.30
2022-11-21T19:54:22.429Z,16.40
2022-11-21T19:56:51.224Z,15.10
2022-11-21T19:59:19.871Z,15.90
2022-11-21T20:01:52.616Z,15.10
2022-11-21T20:04:21.595Z,18.20
2022-11-21T20:06:50.033Z,17.40
2022-11-21T20:09:21.922Z,18.20
2022-11-21T20:11:52.931Z,18.50
2022-11-21T20:14:23.051Z,18.80
2022-11-21T20:16:52.918Z,19.00
2022-11-21T20:19:24.688Z,18.10
2022-11-21T20:21:54.147Z,20.80
2022-11-21T20:24:22.712Z,19.20
2022-11-21T20:26:51.111Z,18.40
2022-11-21T20:29:19.471Z,18.30
2022-11-21T20:31:48.496Z,19.00
2022-11-21T20:34:17.173Z,16.60
2022-11-21T20:36:46.934Z,18.60
2022-11-21T20:39:18.014Z,17.00
2022-11-21T20:41:48.219Z,14.80
2022-11-21T20:47:10.250Z,17.30
2022-11-21T20:49:38.925Z,20.10
2022-11-21T20:54:55.755Z,19.20
2022-11-21T20:57:24.100Z,21.00
2022-11-21T21:01:47.240Z,21.90
2022-11-21T21:04:15.606Z,22.50
2022-11-21T21:06:43.989Z,22.90
2022-11-21T21:09:12.333Z,24.00
2022-11-21T21:11:55.911Z,23.20
2022-11-21T21:14:24.374Z,25.50
2022-11-21T21:16:52.717Z,26.40
2022-11-21T21:19:21.826Z,27.70
2022-11-21T21:21:50.239Z,25.30
2022-11-21T21:24:18.955Z,23.40
2022-11-21T21:26:49.099Z,24.40
2022-11-21T21:29:20.371Z,25.10
2022-11-21T21:31:51.979Z,25.80
2022-11-21T21:34:22.650Z,23.50
2022-11-21T21:36:51.462Z,23.60
2022-11-21T21:39:19.915Z,23.30
2022-11-21T21:41:49.079Z,21.00
2022-11-21T21:44:17.491Z,22.00
2022-11-21T21:46:46.023Z,19.50
2022-11-21T21:49:14.602Z,19.80
2022-11-21T21:51:43.292Z,20.50
2022-11-21T21:54:20.598Z,19.30
2022-11-21T21:56:50.474Z,17.80
2022-11-21T21:59:19.807Z,18.90
2022-11-21T22:01:49.144Z,17.60
2022-11-21T22:04:17.761Z,23.10
2022-11-21T22:06:46.193Z,19.80
2022-11-21T22:09:14.614Z,20.30
2022-11-21T22:11:43.019Z,21.90
2022-11-21T22:14:14.894Z,19.90
2022-11-21T22:16:44.380Z,21.40
2022-11-21T22:19:12.803Z,20.50
2022-11-21T22:21:41.197Z,19.70
2022-11-21T22:24:27.185Z,17.20
2022-11-21T22:26:56.258Z,17.30
2022-11-21T22:29:25.246Z,18.40
2022-11-21T22:31:53.884Z,19.00
2022-11-21T22:34:22.707Z,21.30
2022-11-21T22:36:51.714Z,19.90
2022-11-21T22:39:20.216Z,21.50
2022-11-21T22:41:48.645Z,18.30
2022-11-21T22:44:17.294Z,18.20
2022-11-21T22:46:45.673Z,17.10
2022-11-21T22:49:14.531Z,17.30
2022-11-21T22:51:44.105Z,20.70
2022-11-21T22:54:13.140Z,19.60
2022-11-21T22:56:41.615Z,18.00
2022-11-21T22:59:14.067Z,21.80
2022-11-21T23:01:42.454Z,18.90
2022-11-21T23:04:16.097Z,21.00
2022-11-21T23:06:45.914Z,17.70
2022-11-21T23:09:14.523Z,19.60
2022-11-21T23:11:42.976Z,20.60
2022-11-21T23:14:11.420Z,19.80
2022-11-21T23:16:39.735Z,19.10
2022-11-21T23:19:08.278Z,20.80
2022-11-21T23:21:36.708Z,22.30
2022-11-21T23:24:05.648Z,19.70
2022-11-21T23:26:34.012Z,19.70
2022-11-21T23:29:07.975Z,20.10
2022-11-21T23:31:36.924Z,20.90
2022-11-21T23:34:05.514Z,18.90
2022-11-21T23:36:33.965Z,21.90
2022-11-21T23:39:02.757Z,21.10
2022-11-21T23:41:31.130Z,20.70
2022-11-21T23:44:00.009Z,21.10
2022-11-21T23:46:30.228Z,22.00
2022-11-21T23:48:58.726Z,20.70
2022-11-21T23:51:27.064Z,23.80
2022-11-21T23:53:55.536Z,22.50
2022-11-21T23:56:23.922Z,22.70
2022-11-21T23:58:52.285Z,22.10
